createdAt,value
2018-12-25T00:00:41.416Z,3.64
2018-12-25T00:01:41.405Z,3.53
2018-12-25T00:02:41.404Z,3.50
2018-12-25T00:03:41.407Z,3.60
2018-12-25T00:04:41.367Z,3.61
2018-12-25T00:05:41.367Z,3.53
2018-12-25T00:06:41.359Z,3.58
2018-12-25T00:07:41.340Z,3.58
2018-12-25T00:08:41.366Z,3.62
2018-12-25T00:09:41.324Z,3.62
2018-12-25T00:10:41.306Z,3.65
2018-12-25T00:11:41.284Z,3.78
2018-12-25T00:12:41.281Z,3.70
2018-12-25T00:13:41.286Z,3.67
2018-12-25T00:14:41.297Z,3.70
2018-12-25T00:15:41.284Z,3.75
2018-12-25T00:16:41.255Z,3.79
2018-12-25T00:17:41.223Z,3.72
2018-12-25T00:18:41.220Z,3.78
2018-12-25T00:19:41.208Z,3.80
2018-12-25T00:20:41.221Z,3.75
2018-12-25T00:21:41.177Z,3.76
2018-12-25T00:22:41.176Z,3.78
2018-12-25T00:23:41.165Z,3.76
2018-12-25T00:24:41.143Z,3.78
2018-12-25T00:25:41.176Z,3.70
2018-12-25T00:26:41.137Z,3.71
2018-12-25T00:27:41.123Z,3.90
2018-12-25T00:28:41.116Z,3.85
2018-12-25T00:29:41.100Z,3.79
2018-12-25T00:30:41.109Z,3.72
2018-12-25T00:31:41.109Z,3.85
2018-12-25T00:32:41.073Z,3.85
2018-12-25T00:33:41.061Z,3.86
2018-12-25T00:34:41.054Z,3.88
2018-12-25T00:35:41.055Z,3.88
2018-12-25T00:36:41.058Z,3.85
2018-12-25T00:37:41.011Z,3.94
2018-12-25T00:38:41.004Z,3.88
2018-12-25T00:39:40.987Z,3.83
2018-12-25T00:40:40.982Z,3.85
2018-12-25T00:41:40.964Z,3.85
2018-12-25T00:42:40.978Z,3.71
2018-12-25T00:43:40.947Z,3.88
2018-12-25T00:44:40.934Z,3.89
2018-12-25T00:45:40.933Z,3.83
2018-12-25T00:46:40.916Z,3.85
2018-12-25T00:47:40.915Z,3.85
2018-12-25T00:48:40.929Z,3.86
2018-12-25T00:49:40.885Z,3.85
2018-12-25T00:50:40.872Z,3.88
2018-12-25T00:51:40.855Z,3.85
2018-12-25T00:52:40.864Z,3.80
2018-12-25T00:53:40.841Z,3.85
2018-12-25T00:54:40.864Z,3.88
2018-12-25T00:55:40.824Z,3.86
2018-12-25T00:56:40.812Z,3.85
2018-12-25T00:57:40.844Z,3.92
2018-12-25T00:58:40.794Z,3.89
2018-12-25T00:59:40.766Z,3.86
2018-12-25T01:00:40.757Z,3.86
2018-12-25T01:01:40.773Z,3.88
2018-12-25T01:02:40.765Z,3.89
2018-12-25T01:03:40.738Z,3.96
2018-12-25T01:04:40.728Z,3.89
2018-12-25T01:05:40.700Z,3.86
2018-12-25T01:06:40.695Z,3.94
2018-12-25T01:07:40.710Z,3.89
2018-12-25T01:08:40.678Z,3.82
2018-12-25T01:09:40.657Z,3.92
2018-12-25T01:10:40.649Z,3.90
2018-12-25T01:11:40.640Z,3.90
2018-12-25T01:12:40.635Z,3.92
2018-12-25T01:13:40.653Z,3.88
2018-12-25T01:14:40.614Z,3.79
2018-12-25T01:15:40.610Z,3.90
2018-12-25T01:16:40.601Z,3.88
2018-12-25T01:17:40.574Z,3.85
2018-12-25T01:18:40.585Z,3.88
2018-12-25T01:19:40.578Z,3.92
2018-12-25T01:20:40.544Z,3.85
2018-12-25T01:21:40.549Z,3.85
2018-12-25T01:22:40.529Z,3.79
2018-12-25T01:23:40.519Z,3.82
2018-12-25T01:24:40.514Z,3.89
2018-12-25T01:25:40.503Z,3.80
2018-12-25T01:26:40.494Z,3.80
2018-12-25T01:27:40.477Z,3.89
2018-12-25T01:28:40.485Z,3.83
2018-12-25T01:29:40.456Z,3.88
2018-12-25T01:30:40.442Z,3.86
2018-12-25T01:31:40.417Z,3.82
2018-12-25T01:32:40.447Z,3.86
2018-12-25T01:33:40.428Z,3.89
2018-12-25T01:34:40.420Z,3.86
2018-12-25T01:35:40.414Z,3.88
2018-12-25T01:36:40.370Z,3.85
2018-12-25T01:37:40.372Z,3.83
2018-12-25T01:38:40.340Z,3.89
2018-12-25T01:39:40.398Z,3.82
2018-12-25T01:40:40.347Z,3.86
2018-12-25T01:41:40.315Z,3.86
2018-12-25T01:42:40.343Z,3.88
2018-12-25T01:43:40.289Z,3.88
2018-12-25T01:44:40.305Z,3.92
2018-12-25T01:45:40.273Z,3.90
2018-12-25T01:46:40.286Z,3.92
2018-12-25T01:47:40.249Z,3.88
2018-12-25T01:48:40.263Z,3.83
2018-12-25T01:49:40.227Z,3.83
2018-12-25T01:50:40.242Z,3.85
2018-12-25T01:51:40.232Z,3.86
2018-12-25T01:52:40.195Z,3.79
2018-12-25T01:53:40.200Z,3.82
2018-12-25T01:54:40.213Z,3.89
2018-12-25T01:55:40.206Z,3.85
2018-12-25T01:56:40.231Z,3.82
2018-12-25T01:57:40.171Z,3.89
2018-12-25T01:58:40.176Z,3.92
2018-12-25T01:59:40.157Z,3.80
2018-12-25T02:00:40.164Z,3.85
2018-12-25T02:01:40.107Z,3.88
2018-12-25T02:02:40.091Z,3.85
2018-12-25T02:03:40.073Z,3.86
2018-12-25T02:04:40.053Z,3.80
2018-12-25T02:05:40.068Z,3.89
2018-12-25T02:06:40.076Z,3.97
2018-12-25T02:07:40.047Z,3.94
2018-12-25T02:08:40.032Z,3.97
2018-12-25T02:09:40.019Z,3.94
2018-12-25T02:10:39.999Z,3.90
2018-12-25T02:11:40.034Z,3.94
2018-12-25T02:12:40.001Z,3.94
2018-12-25T02:13:39.961Z,4.01
2018-12-25T02:14:39.953Z,4.00
2018-12-25T02:15:39.940Z,4.00
2018-12-25T02:16:39.926Z,4.07
2018-12-25T02:17:39.952Z,4.06
2018-12-25T02:18:39.927Z,4.06
2018-12-25T02:19:40.332Z,4.04
2018-12-25T02:20:39.893Z,3.98
2018-12-25T02:21:39.872Z,4.00
2018-12-25T02:22:39.864Z,4.00
2018-12-25T02:23:39.877Z,4.12
2018-12-25T02:24:39.853Z,4.10
2018-12-25T02:25:39.842Z,4.08
2018-12-25T02:26:39.825Z,4.15
2018-12-25T02:27:39.812Z,4.14
2018-12-25T02:28:39.831Z,4.16
2018-12-25T02:29:39.798Z,4.15
2018-12-25T02:30:39.797Z,4.06
2018-12-25T02:31:39.782Z,4.14
2018-12-25T02:32:39.780Z,4.14
2018-12-25T02:33:39.768Z,4.14
2018-12-25T02:34:39.733Z,4.08
2018-12-25T02:35:39.720Z,4.00
2018-12-25T02:36:39.715Z,4.14
2018-12-25T02:37:39.719Z,4.06
2018-12-25T02:38:39.727Z,4.03
2018-12-25T02:39:39.693Z,4.06
2018-12-25T02:40:39.671Z,4.12
2018-12-25T02:41:39.658Z,4.06
2018-12-25T02:42:39.640Z,4.01
2018-12-25T02:43:39.667Z,4.06
2018-12-25T02:44:39.655Z,4.03
2018-12-25T02:45:39.650Z,4.01
2018-12-25T02:46:39.601Z,4.00
2018-12-25T02:47:39.593Z,4.10
2018-12-25T02:48:39.597Z,4.04
2018-12-25T02:49:39.585Z,4.15
2018-12-25T02:50:39.564Z,4.03
2018-12-25T02:51:39.600Z,4.12
2018-12-25T02:52:39.569Z,4.12
2018-12-25T02:53:39.539Z,4.16
2018-12-25T02:54:39.515Z,4.12
2018-12-25T02:55:39.513Z,4.16
2018-12-25T02:56:39.614Z,4.14
2018-12-25T02:57:39.496Z,4.16
2018-12-25T02:58:39.480Z,4.16
2018-12-25T02:59:39.483Z,4.12
2018-12-25T03:00:39.486Z,4.19
2018-12-25T03:01:39.466Z,4.19
2018-12-25T03:02:39.445Z,4.24
2018-12-25T03:03:39.441Z,4.15
2018-12-25T03:04:39.410Z,4.24
2018-12-25T03:05:39.388Z,4.18
2018-12-25T03:06:39.404Z,4.18
2018-12-25T03:07:39.393Z,4.10
2018-12-25T03:08:39.360Z,4.14
2018-12-25T03:09:39.372Z,4.16
2018-12-25T03:10:39.346Z,4.14
2018-12-25T03:11:39.340Z,4.10
2018-12-25T03:12:39.355Z,4.04
2018-12-25T03:13:39.306Z,4.08
2018-12-25T03:14:39.306Z,4.18
2018-12-25T03:15:39.295Z,4.16
2018-12-25T03:16:39.284Z,4.15
2018-12-25T03:17:39.285Z,4.16
2018-12-25T03:18:39.262Z,4.18
2018-12-25T03:19:39.239Z,4.10
2018-12-25T03:20:39.376Z,4.16
2018-12-25T03:21:39.232Z,4.18
2018-12-25T03:22:39.247Z,4.19
2018-12-25T03:23:39.210Z,4.19
2018-12-25T03:24:39.198Z,4.14
2018-12-25T03:25:39.172Z,4.18
2018-12-25T03:26:39.171Z,4.19
2018-12-25T03:27:39.153Z,4.25
2018-12-25T03:28:39.157Z,4.18
2018-12-25T03:29:39.137Z,4.25
2018-12-25T03:30:39.138Z,4.21
2018-12-25T03:31:39.123Z,4.22
2018-12-25T03:32:39.232Z,4.21
2018-12-25T03:33:39.126Z,4.21
2018-12-25T03:34:39.096Z,4.15
2018-12-25T03:35:39.077Z,4.19
2018-12-25T03:36:39.069Z,4.26
2018-12-25T03:37:39.050Z,4.12
2018-12-25T03:38:39.055Z,4.21
2018-12-25T03:39:39.053Z,4.22
2018-12-25T03:40:39.023Z,4.25
2018-12-25T03:41:39.011Z,4.29
2018-12-25T03:42:39.006Z,4.22
2018-12-25T03:43:39.016Z,4.24
2018-12-25T03:44:38.985Z,4.18
2018-12-25T03:45:38.963Z,4.22
2018-12-25T03:46:38.947Z,4.19
2018-12-25T03:47:38.949Z,4.22
2018-12-25T03:48:38.957Z,4.22
2018-12-25T03:49:38.926Z,4.26
2018-12-25T03:50:38.905Z,4.19
2018-12-25T03:51:38.892Z,4.25
2018-12-25T03:52:38.890Z,4.19
2018-12-25T03:53:38.898Z,4.26
2018-12-25T03:54:38.871Z,4.33
2018-12-25T03:55:38.860Z,4.28
2018-12-25T03:56:38.853Z,4.28
2018-12-25T03:57:38.826Z,4.28
2018-12-25T03:58:38.854Z,4.32
2018-12-25T03:59:38.810Z,4.32
2018-12-25T04:00:38.791Z,4.26
2018-12-25T04:01:38.801Z,4.32
2018-12-25T04:02:38.782Z,4.29
2018-12-25T04:03:38.765Z,4.24
2018-12-25T04:04:38.772Z,4.29
2018-12-25T04:05:38.891Z,4.28
2018-12-25T04:06:38.748Z,4.25
2018-12-25T04:07:38.734Z,4.26
2018-12-25T04:08:38.713Z,4.32
2018-12-25T04:09:38.705Z,4.29
2018-12-25T04:10:38.685Z,4.28
2018-12-25T04:11:38.691Z,4.28
2018-12-25T04:12:38.670Z,4.37
2018-12-25T04:13:38.674Z,4.34
2018-12-25T04:14:38.651Z,4.33
2018-12-25T04:15:38.640Z,4.34
2018-12-25T04:16:38.653Z,4.29
2018-12-25T04:17:38.607Z,4.37
2018-12-25T04:18:38.598Z,4.36
2018-12-25T04:19:38.594Z,4.32
2018-12-25T04:20:38.586Z,4.36
2018-12-25T04:21:38.568Z,4.37
2018-12-25T04:22:38.590Z,4.37
2018-12-25T04:23:38.553Z,4.33
2018-12-25T04:24:38.544Z,4.33
2018-12-25T04:25:38.531Z,4.37
2018-12-25T04:26:38.515Z,4.37
2018-12-25T04:27:38.530Z,4.34
2018-12-25T04:28:38.498Z,4.32
2018-12-25T04:29:38.481Z,4.28
2018-12-25T04:30:38.468Z,4.34
2018-12-25T04:31:38.476Z,4.34
2018-12-25T04:32:38.469Z,4.34
2018-12-25T04:33:38.446Z,4.34
2018-12-25T04:34:38.439Z,4.32
2018-12-25T04:35:38.417Z,4.33
2018-12-25T04:36:38.410Z,4.36
2018-12-25T04:37:38.429Z,4.39
2018-12-25T04:38:38.398Z,4.37
2018-12-25T04:39:38.406Z,4.33
2018-12-25T04:40:38.397Z,4.34
2018-12-25T04:41:38.353Z,4.37
2018-12-25T04:42:38.406Z,4.33
2018-12-25T04:43:38.340Z,4.42
2018-12-25T04:44:38.307Z,4.37
2018-12-25T04:45:38.314Z,4.40
2018-12-25T04:46:38.304Z,4.42
2018-12-25T04:47:38.311Z,4.39
2018-12-25T04:48:38.298Z,4.36
2018-12-25T04:49:38.259Z,4.36
2018-12-25T04:50:38.246Z,4.36
2018-12-25T04:51:38.244Z,4.32
2018-12-25T04:52:38.234Z,4.33
2018-12-25T04:53:38.238Z,4.29
2018-12-25T04:54:38.210Z,4.32
2018-12-25T04:55:38.189Z,4.28
2018-12-25T04:56:38.189Z,4.29
2018-12-25T04:57:38.184Z,4.28
2018-12-25T04:58:38.195Z,4.26
2018-12-25T04:59:38.159Z,4.21
2018-12-25T05:00:38.149Z,4.22
2018-12-25T05:01:38.124Z,4.18
2018-12-25T05:02:38.113Z,4.19
2018-12-25T05:03:38.116Z,4.16
2018-12-25T05:04:38.115Z,4.25
2018-12-25T05:05:38.094Z,4.15
2018-12-25T05:06:38.088Z,4.25
2018-12-25T05:07:38.060Z,4.18
2018-12-25T05:08:38.073Z,4.12
2018-12-25T05:09:38.055Z,4.12
2018-12-25T05:10:38.065Z,4.14
2018-12-25T05:11:38.029Z,4.16
2018-12-25T05:12:38.015Z,4.12
2018-12-25T05:13:38.906Z,4.07
2018-12-25T05:14:37.988Z,4.14
2018-12-25T05:15:37.969Z,4.07
2018-12-25T05:16:37.986Z,4.00
2018-12-25T05:17:37.976Z,3.96
2018-12-25T05:18:37.947Z,4.04
2018-12-25T05:19:37.934Z,4.06
2018-12-25T05:20:38.250Z,4.01
2018-12-25T05:21:37.931Z,4.00
2018-12-25T05:22:37.898Z,3.98
2018-12-25T05:23:37.907Z,4.01
2018-12-25T05:24:37.884Z,3.98
2018-12-25T05:25:37.860Z,3.92
2018-12-25T05:26:37.876Z,3.96
2018-12-25T05:27:37.865Z,3.97
2018-12-25T05:28:37.838Z,3.96
2018-12-25T05:29:37.841Z,3.94
2018-12-25T05:30:37.822Z,3.94
2018-12-25T05:31:37.833Z,3.89
2018-12-25T05:32:37.803Z,3.85
2018-12-25T05:33:37.789Z,3.79
2018-12-25T05:34:37.823Z,3.83
2018-12-25T05:35:37.758Z,3.82
2018-12-25T05:36:37.752Z,3.92
2018-12-25T05:37:37.765Z,3.92
2018-12-25T05:38:37.743Z,3.88
2018-12-25T05:39:37.716Z,3.80
2018-12-25T05:40:37.696Z,3.85
2018-12-25T05:41:37.696Z,3.88
2018-12-25T05:42:37.710Z,3.90
2018-12-25T05:43:37.677Z,3.89
2018-12-25T05:44:37.678Z,3.85
2018-12-25T05:45:37.654Z,3.79
2018-12-25T05:46:37.636Z,3.88
2018-12-25T05:47:37.670Z,3.79
2018-12-25T05:48:37.624Z,3.71
2018-12-25T05:49:37.611Z,3.86
2018-12-25T05:50:37.615Z,3.82
2018-12-25T05:51:37.595Z,3.80
2018-12-25T05:52:37.608Z,3.67
2018-12-25T05:53:37.559Z,3.75
2018-12-25T05:54:37.547Z,3.78
2018-12-25T05:55:37.547Z,3.72
2018-12-25T05:56:37.533Z,3.75
2018-12-25T05:57:37.529Z,3.71
2018-12-25T05:58:37.529Z,3.72
2018-12-25T05:59:37.492Z,3.70
2018-12-25T06:00:37.483Z,3.76
2018-12-25T06:01:37.490Z,3.71
2018-12-25T06:02:37.505Z,3.85
2018-12-25T06:03:37.487Z,3.89
2018-12-25T06:04:37.475Z,3.82
2018-12-25T06:05:37.429Z,3.79
2018-12-25T06:06:37.413Z,3.85
2018-12-25T06:07:37.421Z,3.88
2018-12-25T06:08:37.429Z,3.88
2018-12-25T06:09:37.443Z,3.90
2018-12-25T06:10:37.388Z,3.86
2018-12-25T06:11:37.370Z,3.90
2018-12-25T06:12:37.354Z,3.86
2018-12-25T06:13:37.365Z,3.89
2018-12-25T06:14:37.343Z,3.90
2018-12-25T06:15:37.353Z,3.82
2018-12-25T06:16:37.315Z,3.89
2018-12-25T06:17:37.300Z,3.86
2018-12-25T06:18:37.290Z,3.83
2018-12-25T06:19:37.271Z,3.80
2018-12-25T06:20:37.271Z,3.89
2018-12-25T06:21:37.287Z,3.85
2018-12-25T06:22:37.252Z,3.86
2018-12-25T06:23:37.273Z,3.97
2018-12-25T06:24:37.234Z,3.94
2018-12-25T06:25:37.209Z,3.92
2018-12-25T06:26:37.236Z,3.94
2018-12-25T06:27:37.197Z,3.94
2018-12-25T06:28:37.274Z,3.96
2018-12-25T06:29:37.167Z,3.97
2018-12-25T06:30:37.167Z,3.94
2018-12-25T06:31:37.173Z,3.90
2018-12-25T06:32:37.136Z,3.96
2018-12-25T06:33:37.131Z,3.96
2018-12-25T06:34:37.136Z,3.97
2018-12-25T06:35:37.113Z,3.94
2018-12-25T06:36:37.117Z,3.94
2018-12-25T06:37:37.100Z,3.94
2018-12-25T06:38:37.070Z,3.97
2018-12-25T06:39:37.055Z,4.01
2018-12-25T06:40:37.041Z,4.03
2018-12-25T06:41:37.073Z,3.98
2018-12-25T06:42:37.038Z,4.03
2018-12-25T06:43:37.015Z,4.01
2018-12-25T06:44:37.070Z,3.98
2018-12-25T06:45:36.997Z,4.06
2018-12-25T06:46:37.015Z,4.06
2018-12-25T06:47:36.987Z,3.94
2018-12-25T06:48:36.979Z,3.96
2018-12-25T06:49:36.945Z,4.07
2018-12-25T06:50:36.937Z,4.08
2018-12-25T06:51:36.952Z,4.03
2018-12-25T06:52:36.938Z,4.03
2018-12-25T06:53:36.930Z,4.12
2018-12-25T06:54:36.912Z,4.08
2018-12-25T06:55:36.940Z,4.14
2018-12-25T06:56:36.907Z,4.14
2018-12-25T06:57:36.859Z,4.08
2018-12-25T06:58:36.854Z,4.10
2018-12-25T06:59:36.859Z,4.15
2018-12-25T07:00:36.835Z,4.03
2018-12-25T07:01:36.896Z,4.15
2018-12-25T07:02:36.811Z,4.15
2018-12-25T07:03:36.810Z,4.16
2018-12-25T07:04:36.787Z,4.24
2018-12-25T07:05:36.784Z,4.14
2018-12-25T07:06:36.831Z,4.24
2018-12-25T07:07:36.763Z,4.25
2018-12-25T07:08:36.747Z,4.18
2018-12-25T07:09:36.724Z,4.18
2018-12-25T07:10:36.723Z,4.21
2018-12-25T07:11:36.732Z,4.22
2018-12-25T07:12:36.713Z,4.18
2018-12-25T07:13:36.724Z,4.25
2018-12-25T07:14:36.688Z,4.15
2018-12-25T07:15:36.678Z,4.24
2018-12-25T07:16:36.680Z,4.22
2018-12-25T07:17:36.659Z,4.16
2018-12-25T07:18:36.657Z,4.19
2018-12-25T07:19:36.639Z,4.19
2018-12-25T07:20:36.618Z,4.24
2018-12-25T07:21:36.600Z,4.19
2018-12-25T07:22:36.607Z,4.22
2018-12-25T07:23:36.576Z,4.18
2018-12-25T07:24:36.568Z,4.18
2018-12-25T07:25:36.661Z,4.19
2018-12-25T07:26:36.551Z,4.19
2018-12-25T07:27:36.588Z,4.19
2018-12-25T07:28:36.534Z,4.19
2018-12-25T07:29:36.526Z,4.19
2018-12-25T07:30:36.538Z,4.18
2018-12-25T07:31:36.507Z,4.22
2018-12-25T07:32:36.994Z,4.18
2018-12-25T07:33:36.472Z,4.21
2018-12-25T07:34:36.466Z,4.15
2018-12-25T07:35:36.451Z,4.19
2018-12-25T07:36:36.440Z,4.25
2018-12-25T07:37:36.436Z,4.19
2018-12-25T07:38:36.458Z,4.14
2018-12-25T07:39:36.424Z,4.24
2018-12-25T07:40:36.403Z,4.26
2018-12-25T07:41:36.419Z,4.24
2018-12-25T07:42:36.382Z,4.22
2018-12-25T07:43:36.380Z,4.21
2018-12-25T07:44:36.342Z,4.25
2018-12-25T07:45:36.338Z,4.22
2018-12-25T07:46:36.330Z,4.19
2018-12-25T07:47:36.311Z,4.25
2018-12-25T07:48:36.339Z,4.22
2018-12-25T07:49:36.321Z,4.24
2018-12-25T07:50:36.293Z,4.19
2018-12-25T07:51:36.280Z,4.16
2018-12-25T07:52:36.288Z,4.18
2018-12-25T07:53:36.252Z,4.21
2018-12-25T07:54:36.254Z,4.18
2018-12-25T07:55:36.226Z,4.16
2018-12-25T07:56:36.231Z,4.25
2018-12-25T07:57:36.215Z,4.21
2018-12-25T07:58:36.221Z,4.19
2018-12-25T07:59:36.189Z,4.19
2018-12-25T08:00:36.182Z,4.22
2018-12-25T08:01:36.156Z,4.24
2018-12-25T08:02:36.153Z,4.22
2018-12-25T08:03:36.174Z,4.18
2018-12-25T08:04:36.158Z,4.18
2018-12-25T08:05:36.127Z,4.21
2018-12-25T08:06:36.121Z,4.21
2018-12-25T08:07:36.096Z,4.32
2018-12-25T08:08:36.082Z,4.26
2018-12-25T08:09:36.108Z,4.32
2018-12-25T08:10:36.090Z,4.32
2018-12-25T08:11:36.069Z,4.34
2018-12-25T08:12:36.066Z,4.33
2018-12-25T08:13:36.042Z,4.33
2018-12-25T08:14:36.052Z,4.24
2018-12-25T08:15:36.013Z,4.32
2018-12-25T08:16:35.992Z,4.29
2018-12-25T08:17:35.996Z,4.34
2018-12-25T08:18:35.988Z,4.29
2018-12-25T08:19:35.961Z,4.29
2018-12-25T08:20:35.971Z,4.34
2018-12-25T08:21:35.958Z,4.34
2018-12-25T08:22:35.942Z,4.39
2018-12-25T08:23:35.934Z,4.36
2018-12-25T08:24:35.926Z,4.40
2018-12-25T08:25:36.090Z,4.37
2018-12-25T08:26:35.890Z,4.39
2018-12-25T08:27:35.886Z,4.43
2018-12-25T08:28:35.867Z,4.40
2018-12-25T08:29:35.867Z,4.44
2018-12-25T08:30:35.875Z,4.46
2018-12-25T08:31:35.859Z,4.44
2018-12-25T08:32:35.935Z,4.43
2018-12-25T08:33:35.818Z,4.54
2018-12-25T08:34:35.808Z,4.46
2018-12-25T08:35:35.816Z,4.55
2018-12-25T08:36:36.527Z,4.55
2018-12-25T08:37:35.766Z,4.54
2018-12-25T08:38:35.761Z,4.51
2018-12-25T08:39:35.764Z,4.57
2018-12-25T08:40:35.759Z,4.50
2018-12-25T08:41:35.733Z,4.62
2018-12-25T08:42:35.721Z,4.61
2018-12-25T08:43:35.709Z,4.59
2018-12-25T08:44:35.704Z,4.59
2018-12-25T08:45:35.707Z,4.65
2018-12-25T08:46:35.668Z,4.67
2018-12-25T08:47:35.718Z,4.77
2018-12-25T08:48:35.658Z,4.76
2018-12-25T08:49:35.647Z,4.73
2018-12-25T08:50:35.662Z,4.72
2018-12-25T08:51:37.699Z,4.76
2018-12-25T08:52:35.615Z,4.86
2018-12-25T08:53:35.603Z,4.79
2018-12-25T08:54:35.598Z,4.91
2018-12-25T08:55:35.604Z,4.91
2018-12-25T08:56:35.580Z,4.86
2018-12-25T08:57:35.553Z,4.89
2018-12-25T08:58:35.557Z,4.92
2018-12-25T08:59:35.596Z,4.83
2018-12-25T09:00:35.537Z,4.89
2018-12-25T09:01:35.512Z,4.95
2018-12-25T09:02:35.513Z,4.96
2018-12-25T09:03:35.496Z,4.98
2018-12-25T09:04:35.503Z,4.99
2018-12-25T09:05:35.504Z,4.96
2018-12-25T09:06:35.457Z,4.96
2018-12-25T09:07:35.450Z,4.86
2018-12-25T09:08:35.453Z,4.95
2018-12-25T09:09:35.427Z,4.92
2018-12-25T09:10:35.408Z,4.91
2018-12-25T09:11:35.436Z,4.96
2018-12-25T09:12:35.394Z,4.96
2018-12-25T09:13:35.385Z,4.95
2018-12-25T09:14:35.392Z,5.01
2018-12-25T09:15:35.386Z,4.94
2018-12-25T09:16:35.368Z,4.98
2018-12-25T09:17:35.351Z,4.98
2018-12-25T09:18:35.336Z,5.07
2018-12-25T09:19:35.311Z,5.04
2018-12-25T09:20:35.299Z,5.09
2018-12-25T09:21:35.303Z,5.09
2018-12-25T09:22:35.295Z,5.02
2018-12-25T09:23:35.292Z,5.09
2018-12-25T09:24:35.256Z,5.13
2018-12-25T09:25:35.267Z,5.07
2018-12-25T09:26:35.257Z,5.14
2018-12-25T09:27:35.255Z,5.17
2018-12-25T09:28:35.257Z,5.17
2018-12-25T09:29:35.202Z,5.14
2018-12-25T09:30:35.192Z,5.23
2018-12-25T09:31:35.187Z,5.19
2018-12-25T09:32:35.173Z,5.17
2018-12-25T09:33:35.278Z,5.20
2018-12-25T09:34:35.153Z,5.30
2018-12-25T09:35:35.149Z,5.28
2018-12-25T09:36:35.149Z,5.30
2018-12-25T09:37:35.131Z,5.43
2018-12-25T09:38:35.114Z,5.40
2018-12-25T09:39:35.146Z,5.49
2018-12-25T09:40:35.087Z,5.50
2018-12-25T09:41:35.066Z,5.52
2018-12-25T09:42:35.069Z,5.48
2018-12-25T09:43:35.049Z,5.53
2018-12-25T09:44:35.048Z,5.55
2018-12-25T09:45:35.067Z,5.59
2018-12-25T09:46:35.034Z,5.57
2018-12-25T09:47:35.015Z,5.59
2018-12-25T09:48:35.011Z,5.66
2018-12-25T09:49:34.979Z,5.71
2018-12-25T09:50:34.991Z,5.75
2018-12-25T09:51:34.964Z,5.74
2018-12-25T09:52:34.948Z,5.71
2018-12-25T09:53:34.945Z,5.75
2018-12-25T09:54:34.945Z,5.74
2018-12-25T09:55:34.917Z,5.81
2018-12-25T09:56:34.922Z,5.74
2018-12-25T09:57:34.922Z,5.73
2018-12-25T09:58:34.896Z,5.77
2018-12-25T09:59:34.886Z,5.78
2018-12-25T10:00:34.878Z,5.73
2018-12-25T10:01:34.887Z,5.77
2018-12-25T10:02:34.855Z,5.91
2018-12-25T10:03:34.844Z,5.89
2018-12-25T10:04:34.823Z,5.89
2018-12-25T10:05:34.822Z,5.98
2018-12-25T10:06:34.842Z,5.96
2018-12-25T10:07:34.794Z,5.96
2018-12-25T10:08:34.800Z,5.93
2018-12-25T10:09:34.764Z,5.88
2018-12-25T10:10:34.750Z,5.88
2018-12-25T10:11:34.767Z,5.83
2018-12-25T10:12:34.766Z,5.85
2018-12-25T10:13:34.721Z,5.83
2018-12-25T10:14:34.708Z,5.85
2018-12-25T10:15:34.697Z,5.91
2018-12-25T10:16:34.715Z,5.89
2018-12-25T10:17:34.683Z,5.85
2018-12-25T10:18:34.673Z,5.92
2018-12-25T10:19:34.671Z,5.82
2018-12-25T10:20:34.654Z,5.91
2018-12-25T10:21:34.657Z,6.00
2018-12-25T10:22:34.650Z,6.03
2018-12-25T10:23:34.621Z,5.96
2018-12-25T10:24:34.602Z,6.03
2018-12-25T10:25:34.596Z,5.98
2018-12-25T10:26:34.617Z,5.83
2018-12-25T10:27:34.578Z,5.82
2018-12-25T10:28:34.563Z,5.71
2018-12-25T10:29:34.559Z,5.66
2018-12-25T10:30:34.543Z,5.74
2018-12-25T10:31:34.553Z,5.75
2018-12-25T10:32:34.523Z,5.70
2018-12-25T10:33:34.521Z,5.82
2018-12-25T10:34:34.487Z,5.82
2018-12-25T10:35:34.478Z,5.77
2018-12-25T10:36:34.503Z,5.77
2018-12-25T10:37:34.473Z,5.71
2018-12-25T10:38:34.462Z,5.74
2018-12-25T10:39:34.469Z,5.66
2018-12-25T10:40:34.475Z,5.70
2018-12-25T10:41:34.512Z,5.73
2018-12-25T10:42:34.480Z,5.74
2018-12-25T10:43:35.002Z,5.74
2018-12-25T10:44:34.450Z,5.93
2018-12-25T10:45:34.425Z,6.03
2018-12-25T10:46:34.377Z,5.98
2018-12-25T10:47:34.422Z,6.04
2018-12-25T10:48:34.348Z,6.04
2018-12-25T10:49:34.337Z,6.01
2018-12-25T10:50:34.324Z,6.03
2018-12-25T10:51:34.338Z,5.96
2018-12-25T10:52:34.306Z,6.01
2018-12-25T10:53:34.282Z,6.00
2018-12-25T10:54:34.278Z,6.04
2018-12-25T10:55:34.261Z,6.07
2018-12-25T10:56:34.269Z,6.11
2018-12-25T10:57:34.249Z,6.11
2018-12-25T10:58:34.250Z,6.13
2018-12-25T10:59:34.214Z,6.10
2018-12-25T11:00:34.203Z,6.07
2018-12-25T11:01:34.237Z,6.11
2018-12-25T11:02:34.210Z,6.07
2018-12-25T11:03:34.178Z,6.07
2018-12-25T11:04:34.177Z,6.14
2018-12-25T11:05:34.154Z,6.25
2018-12-25T11:06:34.165Z,6.16
2018-12-25T11:07:34.128Z,6.18
2018-12-25T11:08:34.124Z,6.16
2018-12-25T11:09:34.117Z,6.06
2018-12-25T11:10:34.137Z,6.00
2018-12-25T11:11:34.101Z,6.09
2018-12-25T11:12:34.080Z,6.07
2018-12-25T11:13:34.061Z,5.96
2018-12-25T11:14:34.053Z,6.00
2018-12-25T11:15:34.050Z,6.06
2018-12-25T11:16:34.064Z,6.14
2018-12-25T11:17:34.023Z,6.25
2018-12-25T11:18:34.006Z,6.44
2018-12-25T11:19:34.000Z,6.33
2018-12-25T11:20:33.983Z,6.43
2018-12-25T11:21:34.002Z,6.38
2018-12-25T11:22:33.970Z,6.36
2018-12-25T11:23:33.971Z,6.40
2018-12-25T11:24:33.952Z,6.41
2018-12-25T11:25:33.933Z,6.41
2018-12-25T11:26:33.942Z,6.44
2018-12-25T11:27:33.920Z,6.50
2018-12-25T11:28:33.898Z,6.40
2018-12-25T11:29:33.914Z,6.41
2018-12-25T11:30:33.895Z,6.43
2018-12-25T11:31:33.883Z,6.38
2018-12-25T11:32:33.869Z,6.44
2018-12-25T11:33:34.479Z,6.40
2018-12-25T11:34:33.846Z,6.40
2018-12-25T11:35:33.839Z,6.43
2018-12-25T11:36:33.855Z,6.47
2018-12-25T11:37:33.819Z,6.36
2018-12-25T11:38:33.792Z,6.40
2018-12-25T11:39:33.788Z,6.35
2018-12-25T11:40:33.775Z,6.44
2018-12-25T11:41:33.791Z,6.30
2018-12-25T11:42:33.781Z,6.36
2018-12-25T11:43:33.761Z,6.38
2018-12-25T11:44:33.734Z,6.40
2018-12-25T11:45:33.710Z,6.41
2018-12-25T11:46:33.712Z,6.38
2018-12-25T11:47:33.803Z,6.43
2018-12-25T11:48:33.684Z,6.40
2018-12-25T11:49:33.679Z,6.36
2018-12-25T11:50:33.665Z,6.46
2018-12-25T11:51:33.641Z,6.44
2018-12-25T11:52:33.648Z,6.43
2018-12-25T11:53:33.659Z,6.36
2018-12-25T11:54:33.683Z,6.33
2018-12-25T11:55:33.636Z,6.33
2018-12-25T11:56:33.609Z,6.33
2018-12-25T11:57:33.584Z,6.35
2018-12-25T11:58:33.566Z,6.33
2018-12-25T11:59:33.592Z,6.30
2018-12-25T12:00:33.564Z,6.33
2018-12-25T12:01:33.538Z,6.30
2018-12-25T12:02:33.542Z,6.35
2018-12-25T12:03:33.518Z,6.38
2018-12-25T12:04:33.531Z,6.36
2018-12-25T12:05:33.501Z,6.44
2018-12-25T12:06:33.497Z,6.38
2018-12-25T12:07:33.479Z,6.35
2018-12-25T12:08:33.468Z,6.44
2018-12-25T12:09:33.634Z,6.38
2018-12-25T12:10:33.435Z,6.43
2018-12-25T12:11:33.420Z,6.40
2018-12-25T12:12:33.411Z,6.46
2018-12-25T12:13:33.413Z,6.44
2018-12-25T12:14:33.395Z,6.51
2018-12-25T12:15:33.402Z,6.41
2018-12-25T12:16:33.386Z,6.56
2018-12-25T12:17:33.351Z,6.50
2018-12-25T12:18:33.343Z,6.53
2018-12-25T12:19:33.367Z,6.63
2018-12-25T12:20:33.365Z,6.62
2018-12-25T12:21:33.313Z,6.61
2018-12-25T12:22:37.115Z,6.62
2018-12-25T12:23:33.298Z,6.61
2018-12-25T12:24:33.317Z,6.61
2018-12-25T12:25:33.279Z,6.62
2018-12-25T12:26:33.284Z,6.63
2018-12-25T12:27:33.249Z,6.50
2018-12-25T12:28:33.237Z,6.48
2018-12-25T12:29:33.218Z,6.56
2018-12-25T12:30:33.233Z,6.50
2018-12-25T12:31:33.196Z,6.46
2018-12-25T12:32:33.208Z,6.44
2018-12-25T12:33:33.199Z,6.56
2018-12-25T12:34:33.177Z,6.61
2018-12-25T12:35:33.182Z,6.48
2018-12-25T12:36:33.153Z,6.47
2018-12-25T12:37:33.146Z,6.44
2018-12-25T12:38:33.139Z,6.47
2018-12-25T12:39:33.203Z,6.47
2018-12-25T12:40:33.152Z,6.44
2018-12-25T12:41:33.089Z,6.43
2018-12-25T12:42:33.089Z,6.51
2018-12-25T12:43:33.072Z,6.47
2018-12-25T12:44:33.074Z,6.46
2018-12-25T12:45:33.086Z,6.44
2018-12-25T12:46:33.042Z,6.54
2018-12-25T12:47:33.039Z,6.51
2018-12-25T12:48:33.036Z,6.51
2018-12-25T12:49:33.013Z,6.51
2018-12-25T12:50:33.020Z,6.61
2018-12-25T12:51:32.989Z,6.62
2018-12-25T12:52:32.991Z,6.62
2018-12-25T12:53:32.973Z,6.61
2018-12-25T12:54:32.973Z,6.59
2018-12-25T12:55:32.979Z,6.46
2018-12-25T12:56:32.924Z,6.46
2018-12-25T12:57:32.931Z,6.46
2018-12-25T12:58:32.917Z,6.41
2018-12-25T12:59:32.908Z,6.41
2018-12-25T13:00:32.921Z,6.41
2018-12-25T13:01:32.861Z,6.43
2018-12-25T13:02:32.850Z,6.41
2018-12-25T13:03:32.845Z,6.50
2018-12-25T13:04:32.832Z,6.38
2018-12-25T13:05:32.850Z,6.41
2018-12-25T13:06:32.849Z,6.38
2018-12-25T13:07:32.819Z,6.40
2018-12-25T13:08:32.791Z,6.32
2018-12-25T13:09:32.805Z,6.36
2018-12-25T13:10:32.780Z,6.35
2018-12-25T13:11:32.764Z,6.30
2018-12-25T13:12:32.793Z,6.35
2018-12-25T13:13:32.756Z,6.33
2018-12-25T13:14:32.770Z,6.35
2018-12-25T13:15:32.719Z,6.30
2018-12-25T13:16:32.712Z,6.32
2018-12-25T13:17:32.710Z,6.35
2018-12-25T13:18:32.699Z,6.32